Time;durP1;ratioP1;P1;durP2;ratioP2;P2;SDS_P1;SDS_P2;PMS_P1;PMS_P2;Temp;Humidity;BMP_temperature;BMP_pressure;BME280_temperature;BME280_humidity;BME280_pressure;Samples;Min_cycle;Max_cycle;Signal;HPM_P1;HPM_P2
2022/07/25 00:00:37;;;;;;;10.00;8.93;;;25.20;99.90;;;;;;5049845;28;20112;-56
2022/07/25 00:03:03;;;;;;;13.05;8.60;;;25.10;99.90;;;;;;5050098;28;20586;-57
2022/07/25 00:05:28;;;;;;;12.15;9.35;;;25.30;99.90;;;;;;5049882;28;20045;-53
2022/07/25 00:07:54;;;;;;;12.38;8.77;;;25.20;99.90;;;;;;5050130;28;20116;-55
2022/07/25 00:10:20;;;;;;;13.95;9.15;;;25.20;99.90;;;;;;5049957;28;20037;-58
2022/07/25 00:12:46;;;;;;;12.07;9.20;;;25.30;99.90;;;;;;5049510;28;20044;-58
2022/07/25 00:15:12;;;;;;;12.40;9.15;;;25.20;99.90;;;;;;5049763;28;20041;-55
2022/07/25 00:17:38;;;;;;;14.35;9.77;;;25.30;99.90;;;;;;5049542;28;20041;-54
2022/07/25 00:20:06;;;;;;;16.35;10.45;;;25.30;99.90;;;;;;5049849;28;20025;-58
2022/07/25 00:22:32;;;;;;;15.07;10.30;;;25.40;99.90;;;;;;5015768;28;20044;-59
2022/07/25 00:24:58;;;;;;;12.00;8.57;;;25.40;99.90;;;;;;5016511;28;20032;-63
2022/07/25 00:27:24;;;;;;;11.05;9.00;;;25.40;99.90;;;;;;5032861;28;20543;-55
2022/07/25 00:29:49;;;;;;;12.18;9.82;;;25.30;99.90;;;;;;5049633;28;20029;-59
2022/07/25 00:32:15;;;;;;;13.27;9.90;;;25.30;99.90;;;;;;5049729;28;20048;-58
2022/07/25 00:34:41;;;;;;;13.77;11.13;;;25.30;99.90;;;;;;5049435;28;20365;-58
2022/07/25 00:37:07;;;;;;;13.07;11.05;;;25.40;99.90;;;;;;5047370;28;20409;-57
2022/07/25 00:39:33;;;;;;;14.48;10.80;;;25.40;99.90;;;;;;5032091;28;20481;-59
2022/07/25 00:41:59;;;;;;;13.90;10.88;;;25.30;99.90;;;;;;5032056;28;20024;-56
2022/07/25 00:44:27;;;;;;;17.20;11.20;;;25.40;99.90;;;;;;5013578;28;20029;-57
2022/07/25 00:46:53;;;;;;;15.15;10.38;;;25.20;99.90;;;;;;5032177;28;20029;-59
2022/07/25 00:49:20;;;;;;;12.93;9.20;;;;;;;;;;5032233;28;20534;-56
2022/07/25 00:51:46;;;;;;;13.05;9.00;;;;;;;;;;5032050;28;20025;-58
2022/07/25 00:54:13;;;;;;;12.68;9.05;;;;;;;;;;5031716;28;20574;-56
2022/07/25 00:56:39;;;;;;;13.45;9.10;;;;;;;;;;5031825;28;20057;-55
2022/07/25 00:59:05;;;;;;;13.25;9.25;;;;;;;;;;5031811;28;20485;-57
2022/07/25 01:01:31;;;;;;;11.93;9.55;;;24.80;99.90;;;;;;5032157;28;20082;-55
2022/07/25 01:03:57;;;;;;;14.77;9.98;;;;;;;;;;5032016;28;20026;-54
2022/07/25 01:06:23;;;;;;;14.55;10.18;;;;;;;;;;5031850;28;20022;-54
2022/07/25 01:08:49;;;;;;;11.80;9.88;;;;;;;;;;5032005;28;20081;-59
2022/07/25 01:11:15;;;;;;;12.50;11.10;;;;;;;;;;5032002;28;20125;-56
2022/07/25 01:13:41;;;;;;;13.80;10.85;;;;;;;;;;5031709;28;20033;-56
2022/07/25 01:16:08;;;;;;;16.17;11.23;;;;;;;;;;5031667;28;20022;-56
2022/07/25 01:18:34;;;;;;;14.73;11.05;;;;;;;;;;5031863;28;20041;-57
2022/07/25 01:21:01;;;;;;;15.65;11.35;;;;;;;;;;5031638;28;20025;-53
2022/07/25 01:23:27;;;;;;;15.95;11.25;;;24.50;99.90;;;;;;5021936;28;20529;-61
2022/07/25 01:25:53;;;;;;;12.10;10.77;;;;;;;;;;5017044;28;20480;-55
2022/07/25 01:28:19;;;;;;;14.63;10.10;;;;;;;;;;5017177;28;20076;-57
2022/07/25 01:30:45;;;;;;;14.68;10.05;;;;;;;;;;5023039;28;20453;-62
2022/07/25 01:33:15;;;;;;;11.60;9.90;;;;;;;;;;5045647;28;20121;-61
2022/07/25 01:35:42;;;;;;;13.00;9.55;;;;;;;;;;5031491;28;20116;-59
2022/07/25 01:38:08;;;;;;;12.75;9.95;;;24.30;99.90;;;;;;5031313;28;20082;-59
2022/07/25 01:40:33;;;;;;;12.25;10.82;;;24.30;99.90;;;;;;5031460;28;20033;-60
2022/07/25 01:42:59;;;;;;;11.85;9.88;;;24.40;99.90;;;;;;5031536;28;20033;-61
2022/07/25 01:45:25;;;;;;;14.32;10.55;;;24.40;99.90;;;;;;5032635;28;20021;-59
2022/07/25 01:47:51;;;;;;;13.60;10.00;;;;;;;;;;5034979;28;20021;-59
2022/07/25 01:50:17;;;;;;;13.38;10.82;;;;;;;;;;5035079;28;20076;-61
2022/07/25 01:52:44;;;;;;;11.95;9.55;;;;;;;;;;5025219;28;20034;-61
2022/07/25 01:55:10;;;;;;;17.55;10.25;;;24.40;99.90;;;;;;5022277;28;20026;-58
2022/07/25 01:57:36;;;;;;;12.85;10.35;;;;;;;;;;5023535;28;20033;-59
2022/07/25 02:00:05;;;;;;;12.73;10.63;;;23.90;99.90;;;;;;5027942;28;20389;-60
2022/07/25 02:02:31;;;;;;;13.50;10.73;;;;;;;;;;5015512;28;20041;-58
2022/07/25 02:04:57;;;;;;;14.75;11.70;;;;;;;;;;5014916;28;20037;-63
2022/07/25 02:07:23;;;;;;;15.50;10.50;;;;;;;;;;5014957;28;20030;-60
2022/07/25 02:09:49;;;;;;;13.68;11.18;;;;;;;;;;5015057;28;20026;-63
2022/07/25 02:12:15;;;;;;;15.50;11.27;;;;;;;;;;5015117;28;20037;-56
2022/07/25 02:14:41;;;;;;;13.13;11.35;;;;;;;;;;5014833;28;20149;-58
2022/07/25 02:17:07;;;;;;;12.82;10.98;;;24.00;99.90;;;;;;5014852;28;20018;-60
2022/07/25 02:19:33;;;;;;;15.35;11.18;;;23.90;99.90;;;;;;5014456;28;20041;-59
2022/07/25 02:21:59;;;;;;;14.13;10.63;;;24.00;99.90;;;;;;5014605;28;20046;-58
2022/07/25 02:24:25;;;;;;;15.13;10.82;;;24.00;99.90;;;;;;5003760;28;20033;-59
2022/07/25 02:26:50;;;;;;;16.17;11.80;;;24.00;99.90;;;;;;5019739;28;20033;-58
2022/07/25 02:29:16;;;;;;;15.23;11.32;;;24.10;99.90;;;;;;5034276;28;20391;-57
2022/07/25 02:31:42;;;;;;;19.33;12.55;;;24.10;99.90;;;;;;5032079;28;20132;-57
2022/07/25 02:34:08;;;;;;;19.33;12.25;;;24.10;99.90;;;;;;5048444;28;20065;-58
2022/07/25 02:36:34;;;;;;;14.32;11.85;;;24.10;99.90;;;;;;5032147;28;20044;-65
2022/07/25 02:38:59;;;;;;;14.90;12.15;;;24.20;99.90;;;;;;5033785;28;20140;-59
2022/07/25 02:41:25;;;;;;;18.73;12.80;;;24.10;99.90;;;;;;5034085;28;20022;-59
2022/07/25 02:43:51;;;;;;;13.50;11.57;;;24.10;99.90;;;;;;5034036;28;20026;-61
2022/07/25 02:46:17;;;;;;;15.43;11.68;;;24.00;99.90;;;;;;5033911;28;20357;-58
2022/07/25 02:48:42;;;;;;;14.57;11.65;;;24.00;99.90;;;;;;5033954;28;20026;-60
2022/07/25 02:51:08;;;;;;;17.38;13.20;;;24.00;99.90;;;;;;5033875;28;20032;-60
2022/07/25 02:53:34;;;;;;;14.00;11.55;;;;;;;;;;5034160;28;20079;-60
2022/07/25 02:56:00;;;;;;;16.00;12.10;;;;;;;;;;5033944;28;20092;-57
2022/07/25 02:58:26;;;;;;;14.70;12.52;;;;;;;;;;5033689;28;20037;-56
2022/07/25 03:00:52;;;;;;;15.98;11.13;;;;;;;;;;5047761;28;20049;-56
2022/07/25 03:03:19;;;;;;;13.95;11.77;;;;;;;;;;5033837;28;20058;-58
2022/07/25 03:05:45;;;;;;;17.90;12.10;;;;;;;;;;5033582;28;20033;-64
2022/07/25 03:08:11;;;;;;;14.73;11.55;;;;;;;;;;5047882;28;20052;-59
2022/07/25 03:10:37;;;;;;;15.15;12.30;;;;;;;;;;5031272;28;20440;-58
2022/07/25 03:13:03;;;;;;;15.68;11.00;;;23.70;99.90;;;;;;5031238;28;20404;-60
2022/07/25 03:15:29;;;;;;;15.32;11.77;;;;;;;;;;5031509;28;20040;-55
2022/07/25 03:17:55;;;;;;;13.40;11.25;;;;;;;;;;5019992;28;20041;-53
2022/07/25 03:20:21;;;;;;;12.25;10.13;;;;;;;;;;5029389;28;20034;-61
2022/07/25 03:22:47;;;;;;;13.63;10.85;;;;;;;;;;5033710;28;20492;-54
2022/07/25 03:25:13;;;;;;;14.88;10.32;;;;;;;;;;5033125;28;20037;-57
2022/07/25 03:27:39;;;;;;;13.95;11.32;;;;;;;;;;5027522;28;20030;-54
2022/07/25 03:30:06;;;;;;;14.00;10.85;;;;;;;;;;5014891;28;20556;-56
2022/07/25 03:32:31;;;;;;;11.60;10.20;;;23.30;99.90;;;;;;5021428;28;20025;-63
2022/07/25 03:48:17;;;;;;;12.48;10.80;;;23.30;99.90;;;;;;5159438;27;20892;-56
2022/07/25 03:50:42;;;;;;;18.77;10.35;;;23.30;99.90;;;;;;5148193;27;20027;-56
2022/07/25 03:53:08;;;;;;;15.88;10.20;;;23.30;99.90;;;;;;5149064;27;20111;-59
2022/07/25 03:55:34;;;;;;;15.07;10.77;;;23.40;99.90;;;;;;5112712;27;20114;-60
2022/07/25 03:58:00;;;;;;;12.77;10.38;;;23.40;99.90;;;;;;5148503;27;20058;-63
2022/07/25 04:00:25;;;;;;;10.63;9.52;;;23.30;99.90;;;;;;5148884;27;20088;-55
2022/07/25 04:02:51;;;;;;;12.07;8.73;;;23.30;99.90;;;;;;5093222;27;20445;-53
2022/07/25 04:05:17;;;;;;;15.80;11.23;;;23.30;99.90;;;;;;5149223;27;20023;-59
2022/07/25 04:07:43;;;;;;;17.63;10.93;;;23.20;99.90;;;;;;5147688;27;20031;-61
2022/07/25 04:10:10;;;;;;;12.60;9.95;;;23.20;99.90;;;;;;5149082;27;20027;-63
2022/07/25 04:12:36;;;;;;;11.25;9.25;;;23.10;99.90;;;;;;5147642;27;20042;-61
2022/07/25 04:15:02;;;;;;;10.48;9.38;;;23.20;99.90;;;;;;5148666;27;20433;-60
2022/07/25 04:17:28;;;;;;;12.20;9.70;;;23.20;99.90;;;;;;5074028;27;20111;-62
2022/07/25 04:19:53;;;;;;;11.82;9.63;;;23.30;99.90;;;;;;5145413;27;20482;-61
2022/07/25 04:22:19;;;;;;;12.20;10.27;;;23.30;99.90;;;;;;5148567;27;20038;-60
2022/07/25 04:24:45;;;;;;;14.18;10.60;;;23.30;99.90;;;;;;5148139;27;20458;-63
2022/07/25 04:27:11;;;;;;;12.00;9.25;;;23.30;99.90;;;;;;5094861;27;20394;-61
2022/07/25 04:29:37;;;;;;;13.23;9.75;;;23.30;99.90;;;;;;5148019;27;20162;-61
2022/07/25 04:32:03;;;;;;;12.98;10.20;;;23.30;99.90;;;;;;5093717;27;20038;-61
2022/07/25 04:34:29;;;;;;;15.63;10.18;;;23.40;99.90;;;;;;5094153;27;20062;-56
2022/07/25 04:36:54;;;;;;;12.45;10.02;;;23.40;99.90;;;;;;5148602;27;20474;-63
2022/07/25 04:39:20;;;;;;;14.52;9.27;;;23.50;99.90;;;;;;5111422;27;20042;-62
2022/07/25 04:41:46;;;;;;;16.60;10.23;;;23.40;99.90;;;;;;5042018;27;20042;-62
2022/07/25 04:44:12;;;;;;;11.85;9.88;;;23.50;99.90;;;;;;5142123;27;20038;-58
2022/07/25 04:46:39;;;;;;;12.15;9.73;;;23.50;99.90;;;;;;5089420;28;20136;-58
2022/07/25 04:49:04;;;;;;;14.70;9.60;;;23.60;99.90;;;;;;5114412;28;20058;-56
2022/07/25 04:51:30;;;;;;;12.25;9.43;;;23.60;99.90;;;;;;5111209;28;20482;-58
2022/07/25 04:53:56;;;;;;;12.32;9.60;;;23.70;99.90;;;;;;5094359;28;20047;-54
2022/07/25 04:56:21;;;;;;;14.77;10.02;;;23.80;99.90;;;;;;5077094;28;20130;-61
2022/07/25 04:58:48;;;;;;;12.65;9.55;;;23.90;99.90;;;;;;5094984;28;20530;-53
2022/07/25 05:01:14;;;;;;;12.32;9.38;;;23.90;99.90;;;;;;5108326;28;20031;-61
2022/07/25 05:03:39;;;;;;;17.45;10.32;;;24.00;99.90;;;;;;5077484;28;20032;-54
2022/07/25 05:06:06;;;;;;;15.75;9.75;;;24.10;99.90;;;;;;5058367;28;20509;-59
2022/07/25 05:08:31;;;;;;;13.30;9.57;;;24.20;99.90;;;;;;5113182;28;20107;-64
2022/07/25 05:10:57;;;;;;;10.82;8.63;;;24.30;99.90;;;;;;5113755;28;20118;-59
2022/07/25 05:13:23;;;;;;;16.05;9.68;;;24.40;99.90;;;;;;5112604;28;20386;-61
2022/07/25 05:15:49;;;;;;;91.57;82.55;;;24.40;99.90;;;;;;5111645;28;20043;-56
2022/07/25 05:18:15;;;;;;;13.35;9.35;;;24.50;99.90;;;;;;5076722;28;20046;-54
2022/07/25 05:20:40;;;;;;;13.77;9.20;;;24.60;99.90;;;;;;5112897;28;20046;-59
2022/07/25 05:23:06;;;;;;;12.48;9.93;;;24.60;99.90;;;;;;5076021;28;20040;-61
2022/07/25 05:25:32;;;;;;;16.27;11.00;;;24.70;99.90;;;;;;5075169;28;20103;-59
2022/07/25 05:27:58;;;;;;;10.88;9.27;;;24.80;99.90;;;;;;5096478;28;20039;-58
2022/07/25 05:30:24;;;;;;;14.38;9.15;;;24.90;99.90;;;;;;5111281;28;20065;-64
2022/07/25 05:32:50;;;;;;;13.68;8.80;;;25.00;99.90;;;;;;5074174;28;20503;-60
2022/07/25 05:35:15;;;;;;;14.50;9.20;;;25.00;99.90;;;;;;5111425;28;20047;-60
2022/07/25 05:37:41;;;;;;;11.80;8.10;;;25.00;99.90;;;;;;5089178;28;20048;-59
2022/07/25 05:40:07;;;;;;;12.98;8.38;;;25.20;99.90;;;;;;5066651;28;20347;-58
2022/07/25 05:42:33;;;;;;;12.13;8.32;;;25.30;99.90;;;;;;5093329;28;20040;-55
2022/07/25 05:45:00;;;;;;;18.70;11.88;;;25.30;99.90;;;;;;5078405;28;20134;-52
2022/07/25 05:47:25;;;;;;;19.10;10.77;;;25.40;99.90;;;;;;5112094;28;20443;-54
2022/07/25 05:49:51;;;;;;;51.97;30.90;;;25.30;99.90;;;;;;5113102;27;20024;-54
2022/07/25 05:52:17;;;;;;;26.52;16.85;;;25.40;99.90;;;;;;5113205;27;20099;-55
2022/07/25 05:54:42;;;;;;;76.50;60.70;;;25.50;99.90;;;;;;5112378;27;20030;-56
2022/07/25 05:57:08;;;;;;;76.70;49.78;;;25.50;99.90;;;;;;5109961;27;20154;-55
2022/07/25 05:59:34;;;;;;;13.23;9.43;;;25.70;99.90;;;;;;5112089;27;20024;-54
2022/07/25 06:02:01;;;;;;;9.90;8.05;;;25.80;99.90;;;;;;5113607;28;20031;-55
2022/07/25 06:04:26;;;;;;;11.98;8.77;;;25.80;99.90;;;;;;5058123;28;20178;-56
2022/07/25 06:06:52;;;;;;;12.98;8.60;;;25.80;99.90;;;;;;5113992;27;20126;-56
2022/07/25 06:09:20;;;;;;;13.35;8.48;;;25.70;99.90;;;;;;5076671;28;20044;-56
2022/07/25 06:11:47;;;;;;;9.82;8.60;;;25.80;99.90;;;;;;5112499;27;20052;-56
2022/07/25 06:14:13;;;;;;;14.35;8.10;;;25.80;99.90;;;;;;5059404;28;20071;-56
2022/07/25 06:16:39;;;;;;;11.80;8.02;;;26.00;99.90;;;;;;5112966;27;20047;-56
2022/07/25 06:19:05;;;;;;;9.98;8.18;;;26.10;99.90;;;;;;5113223;27;20039;-55
2022/07/25 06:21:31;;;;;;;14.43;9.23;;;;;;;;;;5113477;27;20081;-54
2022/07/25 06:23:57;;;;;;;10.82;7.95;;;26.20;99.90;;;;;;5110873;27;20043;-54
2022/07/25 06:26:23;;;;;;;12.38;7.65;;;26.20;99.90;;;;;;5094488;28;20031;-57
2022/07/25 06:28:50;;;;;;;15.85;8.02;;;26.30;99.90;;;;;;5113221;27;20389;-54
2022/07/25 06:31:16;;;;;;;14.05;7.65;;;26.30;99.90;;;;;;5112933;27;20027;-56
2022/07/25 06:33:42;;;;;;;12.25;7.95;;;;;;;;;;5113022;27;20035;-55
2022/07/25 06:36:08;;;;;;;13.75;8.35;;;26.60;99.90;;;;;;5110747;27;20031;-55
2022/07/25 06:38:33;;;;;;;14.93;9.00;;;26.70;99.90;;;;;;5112633;27;20046;-55
2022/07/25 06:41:00;;;;;;;9.10;7.38;;;;;;;;;;5113694;27;20096;-56
2022/07/25 06:43:25;;;;;;;12.48;7.50;;;27.00;99.90;;;;;;5111894;27;20024;-56
2022/07/25 06:45:51;;;;;;;10.40;7.43;;;;;;;;;;5025937;27;20044;-56
2022/07/25 06:48:17;;;;;;;10.93;8.18;;;27.10;99.90;;;;;;5108343;28;20035;-56
2022/07/25 06:50:44;;;;;;;11.32;7.45;;;27.20;99.90;;;;;;5108654;28;20043;-55
2022/07/25 06:53:10;;;;;;;11.35;7.82;;;;;;;;;;5111937;28;20379;-58
2022/07/25 06:55:36;;;;;;;13.80;7.53;;;;;;;;;;5110548;28;20399;-56
2022/07/25 06:58:02;;;;;;;15.88;7.88;;;;;;;;;;5093012;28;20073;-56
2022/07/25 07:00:28;;;;;;;18.33;8.32;;;;;;;;;;5111303;28;20157;-57
2022/07/25 07:02:56;;;;;;;9.60;6.50;;;;;;;;;;5062753;28;20042;-57
2022/07/25 07:05:23;;;;;;;11.23;7.72;;;;;;;;;;5111798;28;20028;-56
2022/07/25 07:07:49;;;;;;;11.93;7.20;;;;;;;;;;5110505;28;20513;-56
2022/07/25 07:10:15;;;;;;;8.27;6.40;;;;;;;;;;5111425;28;20032;-57
2022/07/25 07:12:42;;;;;;;11.32;6.90;;;;;;;;;;5110670;28;20467;-57
2022/07/25 07:15:08;;;;;;;11.52;7.03;;;;;;;;;;5111231;28;20063;-56
2022/07/25 07:17:34;;;;;;;11.30;6.75;;;;;;;;;;5111147;28;20036;-57
2022/07/25 07:20:00;;;;;;;9.48;6.68;;;;;;;;;;5111567;28;20031;-56
2022/07/25 07:22:27;;;;;;;9.73;6.43;;;;;;;;;;5110660;28;20081;-57
2022/07/25 07:24:53;;;;;;;10.90;6.32;;;;;;;;;;5109365;28;20537;-58
2022/07/25 07:27:19;;;;;;;12.85;7.47;;;;;;;;;;5109409;28;20019;-58
2022/07/25 07:29:45;;;;;;;13.65;6.97;;;;;;;;;;5109719;28;20114;-56
2022/07/25 07:32:11;;;;;;;8.93;6.15;;;;;;;;;;5109375;28;20024;-56
2022/07/25 07:34:37;;;;;;;8.77;6.15;;;;;;;;;;5110196;28;20028;-58
2022/07/25 07:37:03;;;;;;;24.02;6.32;;;;;;;;;;5110206;28;20038;-55
2022/07/25 07:39:29;;;;;;;13.57;5.57;;;;;;;;;;5110445;28;20024;-54
2022/07/25 07:41:56;;;;;;;10.80;6.43;;;;;;;;;;5108319;28;20028;-57
2022/07/25 07:44:22;;;;;;;9.35;5.20;;;;;;;;;;5109156;28;20115;-58
2022/07/25 07:46:48;;;;;;;9.10;5.72;;;;;;;;;;5110564;28;20040;-56
2022/07/25 07:49:14;;;;;;;15.00;6.35;;;;;;;;;;5111741;28;20028;-57
2022/07/25 07:51:40;;;;;;;6.03;4.60;;;29.80;91.90;;;;;;5111688;28;20020;-56
2022/07/25 07:56:50;;;;;;;11.80;5.55;;;;;;;;;;5111616;28;20463;-58
2022/07/25 07:59:17;;;;;;;12.85;5.43;;;;;;;;;;5111634;28;20028;-58
2022/07/25 08:01:43;;;;;;;13.60;5.25;;;;;;;;;;5111592;28;20130;-57
2022/07/25 08:04:09;;;;;;;9.70;5.30;;;;;;;;;;5059233;28;20073;-56
2022/07/25 08:06:35;;;;;;;7.28;4.50;;;;;;;;;;5057685;28;20036;-58
2022/07/25 08:09:01;;;;;;;9.73;3.97;;;;;;;;;;5110132;28;20023;-57
2022/07/25 08:11:27;;;;;;;7.97;4.38;;;30.60;90.70;;;;;;5108682;28;20098;-55
2022/07/25 08:13:53;;;;;;;6.78;3.97;;;30.60;90.30;;;;;;5109378;28;20110;-55
2022/07/25 08:16:19;;;;;;;8.07;3.90;;;30.90;88.90;;;;;;5110969;28;20482;-56
2022/07/25 08:18:44;;;;;;;8.20;3.85;;;30.90;87.10;;;;;;5110702;28;20035;-57
2022/07/25 08:21:10;;;;;;;8.02;3.80;;;30.90;87.80;;;;;;5108387;28;20032;-56
2022/07/25 08:23:37;;;;;;;6.35;4.47;;;31.10;87.10;;;;;;5111502;27;20031;-57
2022/07/25 08:26:04;;;;;;;7.32;4.30;;;31.20;88.70;;;;;;5112326;27;20104;-56
2022/07/25 08:28:30;;;;;;;6.55;4.90;;;31.10;86.60;;;;;;5073900;27;20032;-56
2022/07/25 08:30:57;;;;;;;6.72;3.95;;;;;;;;;;5111900;27;20024;-57
2022/07/25 08:33:24;;;;;;;6.03;3.80;;;;;;;;;;5113636;27;20058;-55
2022/07/25 08:35:54;;;;;;;7.60;3.95;;;;;;;;;;5113211;27;20156;-55
2022/07/25 08:38:21;;;;;;;6.78;3.70;;;;;;;;;;5114125;28;20020;-55
2022/07/25 08:40:47;;;;;;;7.50;4.32;;;;;;;;;;5112515;28;20418;-59
2022/07/25 08:43:14;;;;;;;6.30;3.25;;;;;;;;;;5110708;27;20099;-57
2022/07/25 08:45:50;;;;;;;6.00;3.90;;;31.70;99.90;;;;;;5113339;27;20045;-55
2022/07/25 08:48:18;;;;;;;6.32;4.28;;;31.80;80.90;;;;;;5109998;28;20403;-57
2022/07/25 08:50:45;;;;;;;6.03;3.83;;;;;;;;;;5112244;28;20027;-55
2022/07/25 08:53:12;;;;;;;5.07;3.80;;;32.10;93.30;;;;;;5076936;28;20047;-60
2022/07/25 08:55:38;;;;;;;4.68;3.45;;;32.20;80.50;;;;;;5093031;28;20070;-57
2022/07/25 08:58:04;;;;;;;6.03;3.85;;;32.20;80.80;;;;;;5092470;28;20047;-56
2022/07/25 09:00:30;;;;;;;5.88;4.13;;;32.00;77.70;;;;;;5113674;28;20143;-50
2022/07/25 09:03:05;;;;;;;4.20;3.35;;;32.20;78.80;;;;;;5073746;28;20156;-57
2022/07/25 09:05:32;;;;;;;7.10;3.85;;;32.10;76.50;;;;;;5111038;28;20042;-51
2022/07/25 09:08:10;;;;;;;5.43;3.70;;;32.40;77.60;;;;;;5112085;28;20020;-53
2022/07/25 09:10:38;;;;;;;6.80;3.67;;;32.70;91.20;;;;;;5109991;28;20451;-55
2022/07/25 09:13:07;;;;;;;4.93;3.60;;;32.70;91.80;;;;;;5113497;28;20023;-53
2022/07/25 09:15:38;;;;;;;4.72;3.65;;;32.90;78.00;;;;;;5113208;28;20043;-51
2022/07/25 09:18:06;;;;;;;7.05;3.78;;;32.80;76.20;;;;;;5094862;28;20536;-56
2022/07/25 09:20:37;;;;;;;5.60;4.05;;;;;;;;;;5109884;28;20028;-52
2022/07/25 09:23:02;;;;;;;4.68;3.33;;;33.20;90.20;;;;;;5113197;28;20536;-51
2022/07/25 09:25:28;;;;;;;5.50;3.42;;;33.20;90.60;;;;;;5081784;28;20114;-54
2022/07/25 09:28:10;;;;;;;5.85;3.40;;;33.30;93.70;;;;;;5063052;28;20124;-56
2022/07/25 09:30:38;;;;;;;4.25;3.20;;;33.40;92.90;;;;;;5108025;28;20493;-50
2022/07/25 09:33:03;;;;;;;3.83;3.42;;;33.60;95.60;;;;;;5112875;28;20478;-56
2022/07/25 09:35:34;;;;;;;5.95;3.75;;;;;;;;;;5112913;28;20032;-54
2022/07/25 09:38:10;;;;;;;4.28;3.50;;;;;;;;;;5109038;28;20042;-52
2022/07/25 09:40:36;;;;;;;4.25;2.90;;;;;;;;;;5112188;28;20023;-52
2022/07/25 09:43:03;;;;;;;4.00;3.28;;;;;;;;;;5112529;28;20031;-52
2022/07/25 09:45:29;;;;;;;5.07;3.50;;;;;;;;;;5112773;28;20028;-54
2022/07/25 09:47:58;;;;;;;6.88;3.15;;;;;;;;;;5127100;27;20054;-51
2022/07/25 09:50:26;;;;;;;4.63;3.20;;;;;;;;;;5129448;27;20046;-53
2022/07/25 09:52:55;;;;;;;5.28;3.03;;;34.80;85.70;;;;;;5019054;28;20037;-53
2022/07/25 09:55:22;;;;;;;5.43;2.88;;;34.90;71.60;;;;;;5069688;28;20036;-55
2022/07/25 09:57:51;;;;;;;6.38;3.22;;;35.00;71.80;;;;;;5068847;28;20052;-55
2022/07/25 10:00:24;;;;;;;5.57;3.13;;;34.60;72.80;;;;;;5069883;28;20048;-56
2022/07/25 10:03:08;;;;;;;5.30;3.53;;;34.40;72.20;;;;;;5069227;28;20501;-55
2022/07/25 10:05:50;;;;;;;8.50;4.10;;;34.60;71.80;;;;;;5037584;28;20159;-54
2022/07/25 10:08:17;;;;;;;5.10;3.33;;;34.90;71.50;;;;;;5069162;28;20044;-55
2022/07/25 10:10:42;;;;;;;4.28;3.35;;;35.10;72.00;;;;;;5068779;28;20028;-54
2022/07/25 10:13:12;;;;;;;4.85;3.35;;;35.00;71.20;;;;;;5035347;28;20036;-55
2022/07/25 10:15:51;;;;;;;5.53;3.20;;;34.80;71.10;;;;;;5069238;28;20036;-54
2022/07/25 10:18:24;;;;;;;3.90;3.40;;;35.10;70.60;;;;;;5068786;28;20098;-59
2022/07/25 10:20:52;;;;;;;7.80;3.78;;;35.30;70.20;;;;;;5068666;28;20036;-55
2022/07/25 10:23:22;;;;;;;6.13;3.08;;;35.50;70.50;;;;;;5086318;27;20429;-56
2022/07/25 10:26:15;;;;;;;4.07;3.17;;;35.40;69.30;;;;;;5132032;27;20046;-56
2022/07/25 10:28:48;;;;;;;6.38;3.15;;;35.60;69.20;;;;;;5130322;27;20440;-55
2022/07/25 10:31:20;;;;;;;3.20;2.85;;;;;;;;;;5129030;27;20027;-53
2022/07/25 10:33:49;;;;;;;3.60;3.08;;;35.80;93.90;;;;;;5131857;27;20027;-56
2022/07/25 10:36:15;;;;;;;3.75;3.10;;;35.70;69.30;;;;;;5131548;27;20444;-55
2022/07/25 10:38:44;;;;;;;7.60;3.38;;;35.90;68.80;;;;;;5131177;27;20038;-56
2022/07/25 10:41:12;;;;;;;4.00;3.25;;;35.70;73.30;;;;;;5131482;27;20046;-57
2022/07/25 10:43:39;;;;;;;3.35;3.00;;;35.90;70.20;;;;;;5094932;27;20091;-55
2022/07/25 10:46:19;;;;;;;3.13;2.70;;;36.00;67.20;;;;;;5127985;27;20389;-57
2022/07/25 10:48:56;;;;;;;4.38;2.60;;;;;;;;;;5127243;27;20035;-55
2022/07/25 10:51:26;;;;;;;3.63;2.60;;;;;;;;;;5110418;27;20447;-51
2022/07/25 10:53:52;;;;;;;4.20;3.25;;;;;;;;;;5128671;27;20031;-55
2022/07/25 10:56:19;;;;;;;4.55;2.90;;;;;;;;;;5129527;27;20035;-53
2022/07/25 10:58:47;;;;;;;4.35;3.08;;;37.50;77.30;;;;;;5130107;27;20031;-52
2022/07/25 11:01:14;;;;;;;11.55;3.72;;;;;;;;;;5109481;27;20031;-52
2022/07/25 11:03:43;;;;;;;6.97;3.30;;;37.30;65.10;;;;;;5091880;27;20031;-53
2022/07/25 11:06:14;;;;;;;3.20;2.90;;;36.70;66.90;;;;;;5132078;27;20102;-56
2022/07/25 11:08:42;;;;;;;6.30;3.50;;;37.10;68.90;;;;;;5131228;27;20114;-52
2022/07/25 11:11:09;;;;;;;6.82;3.30;;;37.30;66.20;;;;;;5129842;27;20110;-53
2022/07/25 11:13:40;;;;;;;3.38;2.83;;;37.50;71.20;;;;;;5088511;27;20047;-53
2022/07/25 11:16:07;;;;;;;3.33;3.00;;;37.70;88.50;;;;;;5130327;27;20042;-47
2022/07/25 11:18:38;;;;;;;3.92;2.67;;;37.80;87.80;;;;;;5130124;27;20023;-50
2022/07/25 11:21:05;;;;;;;5.43;2.92;;;;;;;;;;5129166;27;20035;-55
2022/07/25 11:23:32;;;;;;;12.80;4.38;;;37.30;87.70;;;;;;5129092;27;20042;-53
2022/07/25 11:26:11;;;;;;;8.05;3.17;;;37.50;79.00;;;;;;5130504;27;20031;-55
2022/07/25 11:28:43;;;;;;;4.88;3.63;;;37.50;77.30;;;;;;5129086;27;20406;-61
2022/07/25 11:31:10;;;;;;;3.17;2.88;;;37.80;79.00;;;;;;5092950;27;20039;-56
2022/07/25 11:33:37;;;;;;;4.53;3.20;;;37.30;78.40;;;;;;5127983;27;20015;-51
2022/07/25 11:36:03;;;;;;;3.53;2.95;;;37.60;77.90;;;;;;5130703;28;20046;-51
2022/07/25 11:38:30;;;;;;;3.90;2.95;;;37.90;79.10;;;;;;5076365;28;20055;-53
2022/07/25 11:40:56;;;;;;;9.60;3.03;;;38.30;83.70;;;;;;5122585;28;20114;-54
2022/07/25 11:43:22;;;;;;;3.67;3.30;;;38.50;81.90;;;;;;5128718;27;20118;-53
2022/07/25 11:46:05;;;;;;;4.75;3.10;;;38.50;72.70;;;;;;5129786;27;20038;-54
2022/07/25 11:48:39;;;;;;;4.80;3.38;;;37.90;72.40;;;;;;5128954;28;20059;-55
2022/07/25 11:51:23;;;;;;;5.13;2.70;;;37.70;72.70;;;;;;5093808;28;20035;-54
2022/07/25 11:53:50;;;;;;;4.93;3.38;;;;;;;;;;5128714;27;20031;-53
2022/07/25 11:56:18;;;;;;;4.22;2.80;;;;;;;;;;5128166;28;20035;-53
2022/07/25 11:58:58;;;;;;;4.55;3.20;;;37.50;84.30;;;;;;5100775;27;20039;-55
2022/07/25 12:01:24;;;;;;;4.05;3.05;;;37.90;71.50;;;;;;5133986;27;20027;-56
2022/07/25 12:03:51;;;;;;;11.27;3.88;;;;;;;;;;5134442;27;20027;-54
2022/07/25 12:06:18;;;;;;;5.13;3.00;;;;;;;;;;5135140;27;20400;-52
2022/07/25 12:08:44;;;;;;;3.58;2.97;;;;;;;;;;5135230;27;20038;-52
2022/07/25 12:11:21;;;;;;;3.72;3.17;;;38.00;66.80;;;;;;5134903;27;20027;-50
2022/07/25 12:13:48;;;;;;;4.20;3.30;;;38.00;64.50;;;;;;5133614;27;20023;-52
2022/07/25 12:16:15;;;;;;;7.32;2.90;;;37.90;65.00;;;;;;5134659;27;20031;-53
2022/07/25 12:18:41;;;;;;;4.82;3.38;;;37.80;65.00;;;;;;5134376;27;20160;-49
2022/07/25 12:21:07;;;;;;;5.57;3.95;;;37.80;65.20;;;;;;5096054;27;20126;-53
2022/07/25 12:23:33;;;;;;;3.80;3.05;;;37.80;65.00;;;;;;5046906;27;20039;-51
2022/07/25 12:25:59;;;;;;;4.20;3.10;;;38.40;71.90;;;;;;5134980;27;20031;-54
2022/07/25 12:28:26;;;;;;;4.70;3.10;;;;;;;;;;5083396;27;20047;-53
2022/07/25 12:30:52;;;;;;;3.38;3.00;;;38.30;66.20;;;;;;5133333;27;20047;-53
2022/07/25 12:33:18;;;;;;;5.82;3.47;;;38.60;69.10;;;;;;5135023;27;20035;-55
2022/07/25 12:35:44;;;;;;;4.43;3.40;;;38.90;63.70;;;;;;5133769;27;20027;-55
2022/07/25 12:38:10;;;;;;;3.92;2.63;;;;;;;;;;5134588;27;20031;-51
2022/07/25 12:40:36;;;;;;;5.63;3.63;;;;;;;;;;5094815;27;20110;-51
2022/07/25 12:43:07;;;;;;;4.97;3.10;;;39.70;86.20;;;;;;5134180;27;20039;-51
2022/07/25 12:45:32;;;;;;;5.53;3.80;;;39.60;69.30;;;;;;5096538;27;20402;-52
2022/07/25 12:47:58;;;;;;;3.90;3.30;;;39.80;63.80;;;;;;5119034;27;20054;-53
2022/07/25 12:50:24;;;;;;;3.90;3.22;;;39.60;68.60;;;;;;5112098;28;20032;-55
2022/07/25 12:52:50;;;;;;;7.50;3.67;;;40.00;69.80;;;;;;5114104;27;20038;-52
2022/07/25 12:55:18;;;;;;;8.75;4.07;;;39.90;64.40;;;;;;5076939;28;20070;-56
2022/07/25 12:57:45;;;;;;;3.63;3.10;;;39.20;63.90;;;;;;5115076;27;20035;-49
2022/07/25 13:00:13;;;;;;;8.27;3.78;;;39.00;62.90;;;;;;5073348;28;20052;-54
2022/07/25 13:02:39;;;;;;;5.38;3.20;;;39.40;63.70;;;;;;5111158;27;20118;-55
2022/07/25 13:05:06;;;;;;;4.32;3.08;;;39.30;62.10;;;;;;5067897;28;20118;-51
2022/07/25 13:07:33;;;;;;;5.72;3.47;;;39.10;62.50;;;;;;5114870;27;20032;-51
2022/07/25 13:09:59;;;;;;;6.07;3.38;;;39.00;63.10;;;;;;5064930;28;20068;-51
2022/07/25 13:12:25;;;;;;;4.78;3.28;;;38.90;63.30;;;;;;5069749;28;20068;-57
2022/07/25 13:14:51;;;;;;;4.57;2.92;;;38.50;62.30;;;;;;5028235;28;20553;-55
2022/07/25 13:17:16;;;;;;;5.05;3.50;;;38.70;61.50;;;;;;5069834;28;20120;-50
2022/07/25 13:19:42;;;;;;;5.22;3.17;;;39.00;62.30;;;;;;5066651;28;20048;-51
2022/07/25 13:22:08;;;;;;;7.03;3.50;;;39.30;60.90;;;;;;5067382;28;20043;-51
2022/07/25 13:24:34;;;;;;;6.35;3.22;;;38.70;61.20;;;;;;5069394;28;20134;-54
2022/07/25 13:27:05;;;;;;;6.22;3.00;;;39.20;61.70;;;;;;5017373;28;20045;-53